EGPK

Glasgow Prestwick Airport

Glasgow, United Kingdom
METAR EGPK 132350Z 14011KT 9999 FEW028 02/M01 Q1021
Observed Flight Rules
Dec-13 @ 23:50 UTC (55 minutes ago) Visual Flight Rules
Wind Visibility Clouds
140° at 11 knots 10,000+ meters
  • Few at 2,800' AGL
Temperatures Readings
Current 2°C / 36°F
Dewpoint -1°C / 30°F
Humidity 81%
Altimeter 30.15" Hg
Pressure 1021 hPa
Elevation 20
METAR EGPK 132350Z 14011KT 9999 FEW028 02/M01 Q1021
Observed Flight Rules
Dec-13 @ 23:50 UTC
(55 minutes ago)
VFR
Wind Visibility
140° at 11 knots 10,000+ meters
Clouds
  • Few at 2,800' AGL
Temperature Dewpoint
2°C / 36°F -1°C / 30°F
Humidity Altimeter Pressure
81% 30.15" Hg 1021 hPa